^^
Meteo Knjazevac Station Historical Data
Daily Summary for March 17, 2021 Units:  Both    English   Metric
Daily Weekly Monthly Yearly Custom
  High: Low: Average:
Temperature: 84.9 °F /  29.4 °C 55.9 °F /  13.3 °C 69.9 °F /  21.1 °C
Dew Point: 70.7 °F /  21.5 °C 54.2 °F /  12.3 °C 63 °F /  17.2 °C
Humidity: 96% 53% 80%
Wind Speed: 7mph /  11.3km/h - 1.8mph /  2.9km/h
Wind Gust: 13mph /  20.9km/h - -
Wind- - SSW
Pressure: 30.14 in /  1020.5 hPa 30.07 in /  1018.2 hPa -
Precipitation: 0.15 in /  3.81 mm    
Historical Graphs
 
 
Tabular Data for March 17, 2021
Time Temperature Dew Point Pressure Wind Wind Speed Wind Gust Humidity Rainfall Rate (Hourly) solar Conditions
00:00 64.4 °F /  18 °C 59.8 °F /  15.4 °C 30.10in /  1019.2hPa ENE 1mph /  1.6km/h 3mph /  4.8km/h 85% 0.00in /  0mm 0 W/m2
00:10 64.1 °F /  17.8 °C 59.5 °F /  15.3 °C 30.10in /  1019.2hPa Calm   2mph /  3.2km/h 85% 0.00in /  0mm 0 W/m2
00:20 64 °F /  17.8 °C 59.4 °F /  15.2 °C 30.11in /  1019.5hPa Calm   2mph /  3.2km/h 85% 0.00in /  0mm 0 W/m2
00:30 64 °F /  17.8 °C 59.8 °F /  15.4 °C 30.11in /  1019.5hPa SW 1mph /  1.6km/h 3mph /  4.8km/h 86% 0.00in /  0mm 0 W/m2
00:40 63.9 °F /  17.7 °C 60.2 °F /  15.7 °C 30.10in /  1019.2hPa Calm   3mph /  4.8km/h 88% 0.00in /  0mm 0 W/m2
00:50 63.7 °F /  17.6 °C 60.1 °F /  15.6 °C 30.10in /  1019.2hPa Calm     88% 0.00in /  0mm 0 W/m2
01:00 63.5 °F /  17.5 °C 59.9 °F /  15.5 °C 30.10in /  1019.2hPa NW 1mph /  1.6km/h 2mph /  3.2km/h 88% 0.00in /  0mm 0 W/m2
01:10 63.3 °F /  17.4 °C 59.7 °F /  15.4 °C 30.10in /  1019.2hPa Calm   2mph /  3.2km/h 88% 0.00in /  0mm 0 W/m2
01:20 63.2 °F /  17.3 °C 59.6 °F /  15.3 °C 30.11in /  1019.5hPa Calm   2mph /  3.2km/h 88% 0.00in /  0mm 0 W/m2
01:30 63 °F /  17.2 °C 59.7 °F /  15.4 °C 30.11in /  1019.5hPa North 1mph /  1.6km/h 3mph /  4.8km/h 89% 0.00in /  0mm 0 W/m2
01:40 62.4 °F /  16.9 °C 59.1 °F /  15.1 °C 30.11in /  1019.5hPa Calm   2mph /  3.2km/h 89% 0.00in /  0mm 0 W/m2
01:50 62.2 °F /  16.8 °C 59 °F /  15 °C 30.11in /  1019.5hPa Calm   2mph /  3.2km/h 89% 0.00in /  0mm 0 W/m2
02:00 61.7 °F /  16.5 °C 58.7 °F /  14.8 °C 30.11in /  1019.5hPa Calm   1mph /  1.6km/h 90% 0.00in /  0mm 0 W/m2
02:10 61.3 °F /  16.3 °C 58.4 °F /  14.7 °C 30.11in /  1019.5hPa Calm   2mph /  3.2km/h 90% 0.00in /  0mm 0 W/m2
02:20 60.9 °F /  16.1 °C 58.2 °F /  14.6 °C 30.11in /  1019.5hPa NW 1mph /  1.6km/h 2mph /  3.2km/h 91% 0.00in /  0mm 0 W/m2
02:30 60.5 °F /  15.8 °C 57.9 °F /  14.4 °C 30.11in /  1019.5hPa Calm   2mph /  3.2km/h 91% 0.00in /  0mm 0 W/m2
02:40 60.3 °F /  15.7 °C 57.6 °F /  14.2 °C 30.10in /  1019.2hPa NNE 1mph /  1.6km/h 4mph /  6.4km/h 91% 0.00in /  0mm 0 W/m2
02:50 60.4 °F /  15.8 °C 57.8 °F /  14.3 °C 30.10in /  1019.2hPa SE 1mph /  1.6km/h 5mph /  8km/h 91% 0.00in /  0mm 0 W/m2
03:00 60.1 °F /  15.6 °C 57.4 °F /  14.1 °C 30.10in /  1019.2hPa Calm   4mph /  6.4km/h 91% 0.00in /  0mm 0 W/m2
03:10 59.7 °F /  15.4 °C 57.1 °F /  13.9 °C 30.11in /  1019.5hPa NNW 1mph /  1.6km/h 5mph /  8km/h 91% 0.00in /  0mm 0 W/m2
03:20 59.5 °F /  15.3 °C 56.9 °F /  13.8 °C 30.10in /  1019.2hPa Calm   5mph /  8km/h 91% 0.00in /  0mm 0 W/m2
03:30 58.9 °F /  14.9 °C 56.2 °F /  13.4 °C 30.11in /  1019.5hPa Calm   2mph /  3.2km/h 91% 0.00in /  0mm 0 W/m2
03:40 58.5 °F /  14.7 °C 56.4 °F /  13.6 °C 30.11in /  1019.5hPa WNW 2mph /  3.2km/h 3mph /  4.8km/h 93% 0.00in /  0mm 0 W/m2
03:50 57.9 °F /  14.4 °C 55.9 °F /  13.3 °C 30.11in /  1019.5hPa WNW 1mph /  1.6km/h 2mph /  3.2km/h 93% 0.00in /  0mm 0 W/m2
04:00 57.6 °F /  14.2 °C 55.6 °F /  13.1 °C 30.11in /  1019.5hPa West 1mph /  1.6km/h 2mph /  3.2km/h 93% 0.00in /  0mm 0 W/m2
04:10 57 °F /  13.9 °C 55.3 °F /  12.9 °C 30.11in /  1019.5hPa WNW 1mph /  1.6km/h 3mph /  4.8km/h 94% 0.00in /  0mm 0 W/m2
04:20 57 °F /  13.9 °C 55.3 °F /  12.9 °C 30.10in /  1019.2hPa NNW 1mph /  1.6km/h 2mph /  3.2km/h 94% 0.00in /  0mm 0 W/m2
04:30 56.8 °F /  13.8 °C 55.1 °F /  12.8 °C 30.10in /  1019.2hPa Calm   1mph /  1.6km/h 94% 0.00in /  0mm 0 W/m2
04:40 56.7 °F /  13.7 °C 55.2 °F /  12.9 °C 30.10in /  1019.2hPa SSE 1mph /  1.6km/h 5mph /  8km/h 95% 0.00in /  0mm 0 W/m2
04:50 56.5 °F /  13.6 °C 54.8 °F /  12.7 °C 30.10in /  1019.2hPa West 1mph /  1.6km/h 3mph /  4.8km/h 94% 0.00in /  0mm 3 W/m2
05:00 56.3 °F /  13.5 °C 54.9 °F /  12.7 °C 30.10in /  1019.2hPa Calm   4mph /  6.4km/h 95% 0.00in /  0mm 8 W/m2
05:10 56.1 °F /  13.4 °C 54.7 °F /  12.6 °C 30.11in /  1019.5hPa Calm   3mph /  4.8km/h 95% 0.00in /  0mm 15 W/m2
05:20 55.9 °F /  13.3 °C 54.2 °F /  12.3 °C 30.11in /  1019.5hPa Calm   2mph /  3.2km/h 94% 0.00in /  0mm 22 W/m2
05:30 55.9 °F /  13.3 °C 54.5 °F /  12.5 °C 30.11in /  1019.5hPa Calm   2mph /  3.2km/h 95% 0.00in /  0mm 31 W/m2
05:40 56.3 °F /  13.5 °C 55.1 °F /  12.8 °C 30.11in /  1019.5hPa SSE 1mph /  1.6km/h 6mph /  9.7km/h 96% 0.00in /  0mm 40 W/m2
05:50 57 °F /  13.9 °C 55.3 °F /  12.9 °C 30.11in /  1019.5hPa SSE 1mph /  1.6km/h 8mph /  12.9km/h 94% 0.00in /  0mm 76 W/m2
06:00 56.7 °F /  13.7 °C 55 °F /  12.8 °C 30.12in /  1019.9hPa Calm   3mph /  4.8km/h 94% 0.00in /  0mm 52 W/m2
06:10 56.8 °F /  13.8 °C 55.4 °F /  13 °C 30.12in /  1019.9hPa WNW 1mph /  1.6km/h 5mph /  8km/h 95% 0.00in /  0mm 57 W/m2
06:20 57.5 °F /  14.2 °C 56.1 °F /  13.4 °C 30.12in /  1019.9hPa SE 2mph /  3.2km/h 6mph /  9.7km/h 95% 0.00in /  0mm 63 W/m2
06:30 57.4 °F /  14.1 °C 55.7 °F /  13.2 °C 30.12in /  1019.9hPa Calm   3mph /  4.8km/h 94% 0.00in /  0mm 78 W/m2
06:40 57.4 °F /  14.1 °C 55.7 °F /  13.2 °C 30.12in /  1019.9hPa Calm   2mph /  3.2km/h 94% 0.00in /  0mm 84 W/m2
06:50 57.4 °F /  14.1 °C 56 °F /  13.3 °C 30.12in /  1019.9hPa NE 1mph /  1.6km/h 4mph /  6.4km/h 95% 0.00in /  0mm 109 W/m2
07:00 57.7 °F /  14.3 °C 56.3 °F /  13.5 °C 30.12in /  1019.9hPa SSW 1mph /  1.6km/h 5mph /  8km/h 95% 0.00in /  0mm 120 W/m2
07:10 58.3 °F /  14.6 °C 56.9 °F /  13.8 °C 30.13in /  1020.2hPa SSE 2mph /  3.2km/h 5mph /  8km/h 95% 0.00in /  0mm 107 W/m2
07:20 58.8 °F /  14.9 °C 57.4 °F /  14.1 °C 30.13in /  1020.2hPa East 1mph /  1.6km/h 4mph /  6.4km/h 95% 0.00in /  0mm 317 W/m2
07:30 59.5 °F /  15.3 °C 58.1 °F /  14.5 °C 30.13in /  1020.2hPa SSE 1mph /  1.6km/h 5mph /  8km/h 95% 0.00in /  0mm 161 W/m2
07:40 60.1 °F /  15.6 °C 58.6 °F /  14.8 °C 30.13in /  1020.2hPa SW 1mph /  1.6km/h 3mph /  4.8km/h 95% 0.00in /  0mm 191 W/m2
07:50 60.8 °F /  16 °C 59.4 °F /  15.2 °C 30.13in /  1020.2hPa Calm   2mph /  3.2km/h 95% 0.00in /  0mm 208 W/m2
08:00 61.5 °F /  16.4 °C 60.1 °F /  15.6 °C 30.13in /  1020.2hPa West 1mph /  1.6km/h 1mph /  1.6km/h 95% 0.00in /  0mm 239 W/m2
08:10 62.4 °F /  16.9 °C 61 °F /  16.1 °C 30.13in /  1020.2hPa SW 1mph /  1.6km/h 3mph /  4.8km/h 95% 0.00in /  0mm 248 W/m2
08:20 63.5 °F /  17.5 °C 60.8 °F /  16 °C 30.14in /  1020.5hPa SSE 1mph /  1.6km/h 4mph /  6.4km/h 91% 0.00in /  0mm 269 W/m2
08:30 64.6 °F /  18.1 °C 61.6 °F /  16.4 °C 30.14in /  1020.5hPa SE 1mph /  1.6km/h 4mph /  6.4km/h 90% 0.00in /  0mm 314 W/m2
08:40 65.8 °F /  18.8 °C 62.5 °F /  16.9 °C 30.14in /  1020.5hPa SE 3mph /  4.8km/h 5mph /  8km/h 89% 0.00in /  0mm 329 W/m2
08:50 66.9 °F /  19.4 °C 62.2 °F /  16.8 °C 30.14in /  1020.5hPa SE 2mph /  3.2km/h 7mph /  11.3km/h 85% 0.00in /  0mm 362 W/m2
09:00 67.8 °F /  19.9 °C 62.8 °F /  17.1 °C 30.14in /  1020.5hPa SE 3mph /  4.8km/h 8mph /  12.9km/h 84% 0.00in /  0mm 380 W/m2
09:10 69.1 °F /  20.6 °C 63.7 °F /  17.6 °C 30.14in /  1020.5hPa SE 3mph /  4.8km/h 8mph /  12.9km/h 83% 0.00in /  0mm 476 W/m2
09:20 70.7 °F /  21.5 °C 64.2 °F /  17.9 °C 30.14in /  1020.5hPa SE 2mph /  3.2km/h 6mph /  9.7km/h 80% 0.00in /  0mm 645 W/m2
09:30 72 °F /  22.2 °C 64.4 °F /  18 °C 30.14in /  1020.5hPa SSE 3mph /  4.8km/h 7mph /  11.3km/h 77% 0.00in /  0mm 477 W/m2
09:40 72.8 °F /  22.7 °C 65.6 °F /  18.7 °C 30.13in /  1020.2hPa SSE 5mph /  8km/h 6mph /  9.7km/h 78% 0.00in /  0mm 641 W/m2
09:50 73.7 °F /  23.2 °C 65.3 °F /  18.5 °C 30.14in /  1020.5hPa South 1mph /  1.6km/h 6mph /  9.7km/h 75% 0.00in /  0mm 540 W/m2
10:00 74.5 °F /  23.6 °C 65.6 °F /  18.7 °C 30.14in /  1020.5hPa NE 1mph /  1.6km/h 6mph /  9.7km/h 74% 0.00in /  0mm 559 W/m2
10:10 75 °F /  23.9 °C 64.6 °F /  18.1 °C 30.14in /  1020.5hPa SSE 2mph /  3.2km/h 6mph /  9.7km/h 70% 0.00in /  0mm 657 W/m2
10:20 75.7 °F /  24.3 °C 65.2 °F /  18.4 °C 30.13in /  1020.2hPa SSE 3mph /  4.8km/h 6mph /  9.7km/h 70% 0.00in /  0mm 710 W/m2
10:30 76.3 °F /  24.6 °C 65.8 °F /  18.8 °C 30.13in /  1020.2hPa SSW 1mph /  1.6km/h 6mph /  9.7km/h 70% 0.00in /  0mm 689 W/m2
10:40 77 °F /  25 °C 66 °F /  18.9 °C 30.13in /  1020.2hPa WSW 1mph /  1.6km/h 5mph /  8km/h 69% 0.00in /  0mm 485 W/m2
10:50 77.4 °F /  25.2 °C 66 °F /  18.9 °C 30.13in /  1020.2hPa SSW 2mph /  3.2km/h 8mph /  12.9km/h 68% 0.00in /  0mm 662 W/m2
11:00 77.9 °F /  25.5 °C 66.1 °F /  18.9 °C 30.13in /  1020.2hPa WSW 1mph /  1.6km/h 6mph /  9.7km/h 67% 0.00in /  0mm 600 W/m2
11:10 79 °F /  26.1 °C 67.1 °F /  19.5 °C 30.13in /  1020.2hPa WSW 3mph /  4.8km/h 7mph /  11.3km/h 67% 0.00in /  0mm 769 W/m2
11:20 79.5 °F /  26.4 °C 66.2 °F /  19 °C 30.12in /  1019.9hPa WNW 1mph /  1.6km/h 5mph /  8km/h 64% 0.00in /  0mm 888 W/m2
11:30 80.4 °F /  26.9 °C 66.6 °F /  19.2 °C 30.12in /  1019.9hPa South 2mph /  3.2km/h 7mph /  11.3km/h 63% 0.00in /  0mm 953 W/m2
11:40 80.6 °F /  27 °C 66.8 °F /  19.3 °C 30.12in /  1019.9hPa South 2mph /  3.2km/h 7mph /  11.3km/h 63% 0.00in /  0mm 961 W/m2
11:50 81.1 °F /  27.3 °C 66.9 °F /  19.4 °C 30.12in /  1019.9hPa SSE 1mph /  1.6km/h 7mph /  11.3km/h 62% 0.00in /  0mm 967 W/m2
12:00 81.7 °F /  27.6 °C 66.4 °F /  19.1 °C 30.11in /  1019.5hPa SSE 3mph /  4.8km/h 7mph /  11.3km/h 60% 0.00in /  0mm 621 W/m2
12:10 81.3 °F /  27.4 °C 66.1 °F /  18.9 °C 30.11in /  1019.5hPa ESE 3mph /  4.8km/h 8mph /  12.9km/h 60% 0.00in /  0mm 442 W/m2
12:20 81 °F /  27.2 °C 65.8 °F /  18.8 °C 30.11in /  1019.5hPa ENE 5mph /  8km/h 7mph /  11.3km/h 60% 0.00in /  0mm 245 W/m2
12:30 80.4 °F /  26.9 °C 66.7 °F /  19.3 °C 30.11in /  1019.5hPa NNE 2mph /  3.2km/h 9mph /  14.5km/h 63% 0.00in /  0mm 201 W/m2
12:40 79.2 °F /  26.2 °C 67.3 °F /  19.6 °C 30.11in /  1019.5hPa NNW 7mph /  11.3km/h 12mph /  19.3km/h 67% 0.00in /  0mm 181 W/m2
12:50 77.6 °F /  25.3 °C 66.2 °F /  19 °C 30.10in /  1019.2hPa NNW 5mph /  8km/h 13mph /  20.9km/h 68% 0.00in /  0mm 213 W/m2
13:00 76.3 °F /  24.6 °C 65.8 °F /  18.8 °C 30.10in /  1019.2hPa NNW 5mph /  8km/h 12mph /  19.3km/h 70% 0.00in /  0mm 460 W/m2
13:10 76.4 °F /  24.7 °C 68.7 °F /  20.4 °C 30.10in /  1019.2hPa WSW 3mph /  4.8km/h 7mph /  11.3km/h 77% 0.00in /  0mm 843 W/m2
13:20 77.7 °F /  25.4 °C 68.8 °F /  20.4 °C 30.10in /  1019.2hPa WSW 5mph /  8km/h 7mph /  11.3km/h 74% 0.00in /  0mm 917 W/m2
13:30 78.6 °F /  25.9 °C 69.2 °F /  20.7 °C 30.10in /  1019.2hPa West 3mph /  4.8km/h 7mph /  11.3km/h 73% 0.00in /  0mm 634 W/m2
13:40 78.6 °F /  25.9 °C 67.6 °F /  19.8 °C 30.10in /  1019.2hPa WSW 5mph /  8km/h 8mph /  12.9km/h 69% 0.00in /  0mm 941 W/m2
13:50 79.3 °F /  26.3 °C 67.9 °F /  19.9 °C 30.09in /  1018.8hPa WSW 5mph /  8km/h 9mph /  14.5km/h 68% 0.00in /  0mm 930 W/m2
14:00 80.4 °F /  26.9 °C 68.4 °F /  20.2 °C 30.09in /  1018.8hPa SW 3mph /  4.8km/h 7mph /  11.3km/h 67% 0.00in /  0mm 917 W/m2
14:10 81.1 °F /  27.3 °C 67.8 °F /  19.9 °C 30.09in /  1018.8hPa SW 5mph /  8km/h 8mph /  12.9km/h 64% 0.00in /  0mm 903 W/m2
14:20 81.7 °F /  27.6 °C 67.4 °F /  19.7 °C 30.09in /  1018.8hPa WSW 5mph /  8km/h 7mph /  11.3km/h 62% 0.00in /  0mm 888 W/m2
14:30 82.2 °F /  27.9 °C 68.4 °F /  20.2 °C 30.09in /  1018.8hPa NNW 1mph /  1.6km/h 6mph /  9.7km/h 63% 0.00in /  0mm 871 W/m2
14:40 82.9 °F /  28.3 °C 67.6 °F /  19.8 °C 30.09in /  1018.8hPa NW 2mph /  3.2km/h 5mph /  8km/h 60% 0.00in /  0mm 854 W/m2
14:50 83.5 °F /  28.6 °C 67.6 °F /  19.8 °C 30.08in /  1018.5hPa WSW 3mph /  4.8km/h 9mph /  14.5km/h 59% 0.00in /  0mm 834 W/m2
15:00 83.7 °F /  28.7 °C 66.8 °F /  19.3 °C 30.08in /  1018.5hPa WSW 5mph /  8km/h 6mph /  9.7km/h 57% 0.00in /  0mm 814 W/m2
15:10 83.8 °F /  28.8 °C 65.4 °F /  18.6 °C 30.08in /  1018.5hPa SW 2mph /  3.2km/h 7mph /  11.3km/h 54% 0.00in /  0mm 793 W/m2
15:20 84.4 °F /  29.1 °C 65.9 °F /  18.8 °C 30.07in /  1018.2hPa WSW 3mph /  4.8km/h 8mph /  12.9km/h 54% 0.00in /  0mm 770 W/m2
15:30 84.6 °F /  29.2 °C 66.6 °F /  19.2 °C 30.07in /  1018.2hPa SW 7mph /  11.3km/h 10mph /  16.1km/h 55% 0.00in /  0mm 747 W/m2
15:40 84.6 °F /  29.2 °C 66.6 °F /  19.2 °C 30.07in /  1018.2hPa SW 5mph /  8km/h 9mph /  14.5km/h 55% 0.00in /  0mm 722 W/m2
15:50 84.6 °F /  29.2 °C 65.5 °F /  18.6 °C 30.07in /  1018.2hPa SW 6mph /  9.7km/h 10mph /  16.1km/h 53% 0.00in /  0mm 697 W/m2
16:00 84.7 °F /  29.3 °C 65.7 °F /  18.7 °C 30.07in /  1018.2hPa SW 6mph /  9.7km/h 11mph /  17.7km/h 53% 0.00in /  0mm 671 W/m2
16:10 84.9 °F /  29.4 °C 65.9 °F /  18.8 °C 30.08in /  1018.5hPa SW 2mph /  3.2km/h 8mph /  12.9km/h 53% 0.00in /  0mm 644 W/m2
16:20 84.2 °F /  29 °C 66.3 °F /  19.1 °C 30.08in /  1018.5hPa NW 5mph /  8km/h 7mph /  11.3km/h 55% 0.00in /  0mm 83 W/m2
16:30 82.9 °F /  28.3 °C 67.1 °F /  19.5 °C 30.08in /  1018.5hPa NNW 2mph /  3.2km/h 8mph /  12.9km/h 59% 0.00in /  0mm 69 W/m2
16:40 80.8 °F /  27.1 °C 68.8 °F /  20.4 °C 30.09in /  1018.8hPa NNW 1mph /  1.6km/h 7mph /  11.3km/h 67% 0.01in /  0.25mm 111 W/m2
16:50 79.2 °F /  26.2 °C 67.7 °F /  19.8 °C 30.09in /  1018.8hPa West 3mph /  4.8km/h 7mph /  11.3km/h 68% 0.01in /  0.25mm 95 W/m2
17:00 77.9 °F /  25.5 °C 68.5 °F /  20.3 °C 30.10in /  1019.2hPa North 3mph /  4.8km/h 7mph /  11.3km/h 73% 0.03in /  0.76mm 63 W/m2
17:10 76.1 °F /  24.5 °C 69.1 °F /  20.6 °C 30.10in /  1019.2hPa NNW 2mph /  3.2km/h 8mph /  12.9km/h 79% 0.04in /  1.02mm 76 W/m2
17:20 75.2 °F /  24 °C 69 °F /  20.6 °C 30.10in /  1019.2hPa ENE 3mph /  4.8km/h 7mph /  11.3km/h 81% 0.06in /  1.52mm 114 W/m2
17:30 74.3 °F /  23.5 °C 69.8 °F /  21 °C 30.10in /  1019.2hPa NNW 2mph /  3.2km/h 5mph /  8km/h 86% 0.01in /  0.25mm 255 W/m2
17:40 74.3 °F /  23.5 °C 70.5 °F /  21.4 °C 30.10in /  1019.2hPa North 1mph /  1.6km/h 6mph /  9.7km/h 88% 0.00in /  0mm 378 W/m2
17:50 74.5 °F /  23.6 °C 70.7 °F /  21.5 °C 30.10in /  1019.2hPa Calm   6mph /  9.7km/h 88% 0.00in /  0mm 258 W/m2
18:00 74.7 °F /  23.7 °C 69.5 °F /  20.8 °C 30.10in /  1019.2hPa NNW 2mph /  3.2km/h 6mph /  9.7km/h 84% 0.00in /  0mm 317 W/m2
18:10 75 °F /  23.9 °C 70.2 °F /  21.2 °C 30.10in /  1019.2hPa NNW 2mph /  3.2km/h 5mph /  8km/h 85% 0.00in /  0mm 271 W/m2
18:30 74.5 °F /  23.6 °C 69.3 °F /  20.7 °C 30.11in /  1019.5hPa West 1mph /  1.6km/h 3mph /  4.8km/h 84% 0.00in /  0mm 229 W/m2
18:40 74.7 °F /  23.7 °C 69.5 °F /  20.8 °C 30.11in /  1019.5hPa SW 2mph /  3.2km/h 5mph /  8km/h 84% 0.00in /  0mm 201 W/m2
18:50 74.7 °F /  23.7 °C 68.1 °F /  20.1 °C 30.11in /  1019.5hPa SSW 2mph /  3.2km/h 4mph /  6.4km/h 80% 0.00in /  0mm 173 W/m2
19:00 74.5 °F /  23.6 °C 69 °F /  20.6 °C 30.11in /  1019.5hPa SSE 1mph /  1.6km/h 5mph /  8km/h 83% 0.00in /  0mm 147 W/m2
19:10 74.5 °F /  23.6 °C 69 °F /  20.6 °C 30.12in /  1019.9hPa SSW 2mph /  3.2km/h 3mph /  4.8km/h 83% 0.00in /  0mm 121 W/m2
19:20 74.1 °F /  23.4 °C 67.9 °F /  19.9 °C 30.12in /  1019.9hPa SW 1mph /  1.6km/h 4mph /  6.4km/h 81% 0.00in /  0mm 97 W/m2
19:30 73.8 °F /  23.2 °C 67.6 °F /  19.8 °C 30.12in /  1019.9hPa South 2mph /  3.2km/h 4mph /  6.4km/h 81% 0.00in /  0mm 73 W/m2
19:40 73.6 °F /  23.1 °C 68.4 °F /  20.2 °C 30.12in /  1019.9hPa SW 1mph /  1.6km/h 3mph /  4.8km/h 84% 0.00in /  0mm 48 W/m2
19:50 73.2 °F /  22.9 °C 68.1 °F /  20.1 °C 30.12in /  1019.9hPa Calm   2mph /  3.2km/h 84% 0.00in /  0mm 30 W/m2
20:00 73 °F /  22.8 °C 67.9 °F /  19.9 °C 30.12in /  1019.9hPa SSW 1mph /  1.6km/h 3mph /  4.8km/h 84% 0.00in /  0mm 14 W/m2
20:10 72.1 °F /  22.3 °C 67.7 °F /  19.8 °C 30.12in /  1019.9hPa SSE 1mph /  1.6km/h 4mph /  6.4km/h 86% 0.00in /  0mm 6 W/m2
20:20 71.6 °F /  22 °C 67.9 °F /  19.9 °C 30.12in /  1019.9hPa SW 1mph /  1.6km/h 2mph /  3.2km/h 88% 0.00in /  0mm 0 W/m2
20:30 71.1 °F /  21.7 °C 67.3 °F /  19.6 °C 30.12in /  1019.9hPa NNW 1mph /  1.6km/h 3mph /  4.8km/h 88% 0.00in /  0mm 0 W/m2
Knjazevac, Serbia
Compliments of Weather Underground - 2 mb